Time;durP1;ratioP1;P1;durP2;ratioP2;P2;SDS_P1;SDS_P2;PMS_P1;PMS_P2;Temp;Humidity;BMP_temperature;BMP_pressure;BME280_temperature;BME280_humidity;BME280_pressure;Samples;Min_cycle;Max_cycle;Signal;HPM_P1;HPM_P2
2023/09/16 00:01:46;;;;;;;6.15;2.25;;;;;;;21.79;49.35;101614.84;5032581;27;98885;-74
2023/09/16 00:04:12;;;;;;;4.90;2.58;;;;;;;21.78;49.08;101617.66;5032418;27;99999;-74
2023/09/16 00:06:39;;;;;;;7.35;2.60;;;;;;;21.73;49.17;101623.34;5033401;27;96716;-74
2023/09/16 00:09:07;;;;;;;5.35;2.25;;;;;;;21.70;49.07;101628.94;5033353;27;96756;-73
2023/09/16 00:11:33;;;;;;;3.50;2.03;;;;;;;21.56;49.48;101625.47;5032464;27;101325;-75
2023/09/16 00:13:59;;;;;;;6.10;2.83;;;;;;;21.38;50.14;101623.06;5033005;27;98749;-75
2023/09/16 00:16:26;;;;;;;5.03;2.80;;;;;;;21.59;49.63;101633.34;5027463;27;96842;-74
2023/09/16 00:18:52;;;;;;;5.03;2.95;;;;;;;21.42;49.99;101626.38;5027840;27;96781;-74
2023/09/16 00:21:18;;;;;;;3.25;2.30;;;;;;;21.32;50.49;101626.16;5030162;27;99273;-74
2023/09/16 00:23:45;;;;;;;4.88;3.08;;;;;;;21.34;50.07;101626.91;5030352;27;101675;-75
2023/09/16 00:26:14;;;;;;;5.57;2.97;;;;;;;21.34;50.10;101623.34;5030496;27;96796;-75
2023/09/16 00:28:40;;;;;;;4.82;2.40;;;;;;;21.23;50.36;101623.19;5029684;27;96850;-74
2023/09/16 00:31:07;;;;;;;3.92;2.53;;;;;;;21.31;50.43;101621.75;5029736;27;99037;-75
2023/09/16 00:33:34;;;;;;;6.88;2.55;;;;;;;21.29;50.39;101620.09;5030052;27;99393;-75
2023/09/16 00:36:00;;;;;;;6.45;2.30;;;;;;;21.33;50.41;101618.97;5025090;27;96723;-74
2023/09/16 00:38:26;;;;;;;7.10;2.78;;;;;;;21.34;50.32;101618.81;5029794;27;96756;-75
2023/09/16 00:40:53;;;;;;;4.60;2.45;;;;;;;21.33;50.16;101613.59;5030494;27;101605;-75
2023/09/16 00:43:21;;;;;;;6.70;2.17;;;;;;;21.12;50.42;101612.28;5029025;27;98778;-75
2023/09/16 00:45:47;;;;;;;4.30;2.13;;;;;;;21.20;50.61;101612.66;5023999;27;97245;-75
2023/09/16 00:48:15;;;;;;;4.88;2.88;;;;;;;21.17;50.46;101612.84;5030479;27;96912;-75
2023/09/16 00:50:43;;;;;;;4.53;2.40;;;;;;;20.98;51.13;101610.50;5030697;27;98211;-75
2023/09/16 00:53:10;;;;;;;3.42;2.85;;;;;;;21.24;50.42;101606.97;5030408;27;100713;-75
2023/09/16 00:55:38;;;;;;;3.35;2.13;;;;;;;21.05;50.84;101607.31;5030693;27;97015;-75
2023/09/16 00:58:04;;;;;;;5.28;2.30;;;;;;;21.22;50.11;101603.53;5030837;27;96758;-74
2023/09/16 01:00:32;;;;;;;6.22;3.20;;;;;;;21.22;50.20;101605.34;5031676;27;101891;-72
2023/09/16 01:02:59;;;;;;;3.63;2.75;;;;;;;21.19;50.18;101601.06;5030983;27;98862;-70
2023/09/16 01:05:26;;;;;;;8.68;2.60;;;;;;;21.03;50.45;101595.78;5029205;27;96942;-72
2023/09/16 01:07:52;;;;;;;3.67;2.47;;;;;;;20.92;50.65;101595.63;5026202;27;97351;-72
2023/09/16 01:10:20;;;;;;;5.70;2.38;;;;;;;21.22;50.05;101597.28;5028551;27;99130;-72
2023/09/16 01:12:48;;;;;;;9.10;2.78;;;;;;;21.05;50.21;101596.56;5029244;27;98865;-72
2023/09/16 01:15:16;;;;;;;7.10;2.55;;;;;;;21.02;50.34;101591.38;5028827;27;98972;-71
2023/09/16 01:17:50;;;;;;;8.13;2.67;;;;;;;20.96;50.46;101589.09;5037289;27;96794;-71
2023/09/16 01:20:19;;;;;;;3.33;2.20;;;;;;;20.95;50.29;101587.34;5032296;27;99368;-71
2023/09/16 01:22:46;;;;;;;6.90;2.90;;;;;;;20.92;50.42;101590.25;5041758;27;99556;-71
2023/09/16 01:25:15;;;;;;;6.43;2.63;;;;;;;20.72;50.72;101585.31;5035307;27;96756;-71
2023/09/16 01:27:41;;;;;;;6.43;2.63;;;;;;;20.65;50.93;101578.63;5028262;27;96799;-71
2023/09/16 01:30:08;;;;;;;7.20;3.33;;;;;;;20.50;51.62;101575.09;5038798;27;99199;-71
2023/09/16 01:32:41;;;;;;;7.63;2.60;;;;;;;20.53;51.44;101576.72;5045060;27;98911;-71
2023/09/16 01:35:11;;;;;;;4.22;2.45;;;;;;;20.56;51.19;101574.69;5040353;27;96753;-71
2023/09/16 01:37:39;;;;;;;4.72;3.03;;;;;;;20.51;51.50;101573.25;5034633;27;96914;-71
2023/09/16 01:40:10;;;;;;;3.35;2.38;;;;;;;20.39;51.54;101574.91;5037316;27;98433;-71
2023/09/16 01:42:39;;;;;;;8.23;3.20;;;;;;;20.47;51.36;101561.88;5038023;27;97560;-72
2023/09/16 01:45:07;;;;;;;4.53;2.78;;;;;;;20.59;51.10;101571.81;5031384;27;96843;-71
2023/09/16 01:47:33;;;;;;;7.10;2.90;;;;;;;20.44;51.36;101566.56;5039477;27;97317;-71
2023/09/16 01:50:00;;;;;;;6.97;2.70;;;;;;;20.36;51.22;101569.72;5028613;27;99447;-71
2023/09/16 01:52:26;;;;;;;5.13;2.50;;;;;;;20.38;51.24;101566.94;5028716;27;97625;-72
2023/09/16 01:54:53;;;;;;;7.03;2.45;;;;;;;20.47;51.00;101559.19;5029934;27;96801;-71
2023/09/16 01:57:19;;;;;;;10.27;2.78;;;;;;;20.55;50.73;101566.72;5033063;27;96800;-71
2023/09/16 01:59:47;;;;;;;4.32;2.67;;;;;;;20.48;50.98;101563.56;5030567;27;99005;-72
2023/09/16 02:02:13;;;;;;;4.47;2.45;;;;;;;20.42;50.96;101563.97;5032848;27;99012;-72
2023/09/16 02:04:43;;;;;;;5.80;3.13;;;;;;;20.41;50.91;101562.28;5033977;27;96936;-72
2023/09/16 02:07:10;;;;;;;4.25;2.83;;;;;;;20.29;51.28;101566.53;5032432;27;96866;-72
2023/09/16 02:09:36;;;;;;;6.95;2.67;;;;;;;20.30;51.07;101560.22;5030389;27;100707;-71
2023/09/16 02:12:02;;;;;;;4.45;2.47;;;;;;;20.43;50.76;101562.16;5026407;28;99007;-72
2023/09/16 02:14:29;;;;;;;6.28;2.80;;;;;;;20.21;51.52;101559.94;5030939;27;96862;-72
2023/09/16 02:16:57;;;;;;;11.65;2.45;;;;;;;20.35;51.01;101559.94;5034319;27;98054;-71
2023/09/16 02:19:25;;;;;;;3.42;2.53;;;;;;;20.27;51.15;101548.81;5032597;27;98081;-72
2023/09/16 02:21:52;;;;;;;4.78;2.80;;;;;;;20.23;51.66;101558.00;5033668;27;99233;-71
2023/09/16 02:24:18;;;;;;;8.85;3.03;;;;;;;20.25;51.32;101556.97;5029837;27;96958;-72
2023/09/16 02:26:44;;;;;;;3.83;2.72;;;;;;;20.20;51.44;101556.41;5032187;27;97187;-71
2023/09/16 02:29:11;;;;;;;4.03;2.42;;;;;;;20.10;51.61;101549.88;5032677;27;99162;-72
2023/09/16 02:31:37;;;;;;;7.68;3.00;;;;;;;20.30;51.20;101545.94;5032635;27;98914;-72
2023/09/16 02:34:05;;;;;;;5.32;2.22;;;;;;;20.10;51.62;101549.88;5033062;27;97009;-72
2023/09/16 02:36:31;;;;;;;3.70;2.40;;;;;;;20.07;51.51;101558.13;5032611;27;96868;-72
2023/09/16 02:38:57;;;;;;;6.03;2.90;;;;;;;20.09;51.67;101550.81;5033710;27;99323;-72
2023/09/16 02:41:24;;;;;;;3.05;2.33;;;;;;;20.12;51.20;101547.97;5030295;27;98806;-72
2023/09/16 02:43:50;;;;;;;4.05;2.67;;;;;;;19.93;51.93;101550.06;5031883;27;96857;-71
2023/09/16 02:46:17;;;;;;;6.60;2.70;;;;;;;20.02;51.67;101545.97;5030307;27;97084;-72
2023/09/16 02:48:43;;;;;;;7.50;2.67;;;;;;;19.80;52.51;101544.59;5032316;27;98826;-71
2023/09/16 02:51:11;;;;;;;6.82;2.70;;;;;;;19.97;51.89;101540.00;5032931;27;99476;-71
2023/09/16 02:53:38;;;;;;;5.55;2.92;;;;;;;20.16;51.10;101535.19;5031166;27;96834;-72
2023/09/16 02:56:04;;;;;;;5.35;3.00;;;;;;;20.19;50.76;101533.19;5032341;27;97109;-72
2023/09/16 02:58:31;;;;;;;6.72;2.80;;;;;;;19.94;51.50;101534.84;5033422;27;98848;-71
2023/09/16 03:00:57;;;;;;;5.85;2.40;;;;;;;20.05;51.02;101543.06;5032415;27;98785;-71
2023/09/16 03:03:24;;;;;;;4.38;2.30;;;;;;;19.89;51.37;101529.72;5031675;27;98837;-71
2023/09/16 03:05:50;;;;;;;5.50;2.40;;;;;;;19.93;51.42;101528.59;5031955;27;96785;-71
2023/09/16 03:08:19;;;;;;;6.97;2.65;;;;;;;19.80;51.40;101522.28;5032365;27;99102;-72
2023/09/16 03:10:46;;;;;;;8.23;3.10;;;;;;;19.88;51.20;101531.59;5032221;27;99307;-71
2023/09/16 03:13:12;;;;;;;5.40;2.92;;;;;;;19.95;51.02;101532.06;5030412;27;96757;-72
2023/09/16 03:15:44;;;;;;;7.07;2.47;;;;;;;19.97;51.44;101526.56;5031621;27;96839;-72
2023/09/16 03:18:10;;;;;;;6.90;2.72;;;;;;;19.89;51.28;101527.91;5033710;27;100240;-72
2023/09/16 03:20:38;;;;;;;3.95;2.50;;;;;;;19.79;51.52;101523.22;5031497;27;97036;-72
2023/09/16 03:23:04;;;;;;;8.93;3.05;;;;;;;19.93;51.25;101522.38;5031959;27;96786;-72
2023/09/16 03:25:32;;;;;;;7.43;2.72;;;;;;;20.09;50.79;101524.00;5031147;27;98705;-72
2023/09/16 03:28:00;;;;;;;6.03;2.88;;;;;;;20.10;50.50;101525.72;5031710;27;97877;-72
2023/09/16 03:30:27;;;;;;;6.30;2.80;;;;;;;20.10;50.67;101516.81;5031146;27;101901;-71
2023/09/16 03:32:53;;;;;;;5.88;2.72;;;;;;;20.26;50.01;101521.13;5033412;27;96664;-71
2023/09/16 03:35:21;;;;;;;6.70;2.95;;;;;;;20.22;50.20;101519.56;5030195;27;97554;-72
2023/09/16 03:37:47;;;;;;;9.60;3.05;;;;;;;20.12;50.36;101517.56;5032237;27;101682;-72
2023/09/16 03:40:14;;;;;;;4.95;2.70;;;;;;;19.93;50.79;101512.50;5031087;27;97972;-71
2023/09/16 03:42:41;;;;;;;6.07;2.55;;;;;;;19.92;51.23;101509.91;5031933;27;98176;-72
2023/09/16 03:45:08;;;;;;;5.78;3.08;;;;;;;20.05;50.80;101503.69;5030194;27;96842;-72
2023/09/16 03:47:34;;;;;;;7.28;2.78;;;;;;;20.19;50.48;101497.44;5031065;27;99763;-71
2023/09/16 03:50:01;;;;;;;7.55;2.85;;;;;;;20.32;50.24;101492.16;5031379;27;99078;-72
2023/09/16 03:52:27;;;;;;;8.05;3.47;;;;;;;20.46;49.80;101489.47;5032314;27;96800;-71
2023/09/16 03:54:54;;;;;;;7.20;2.90;;;;;;;20.19;50.08;101489.41;5031962;27;96942;-72
2023/09/16 03:57:20;;;;;;;8.23;2.72;;;;;;;20.02;50.44;101495.81;5031965;27;98865;-72
2023/09/16 03:59:48;;;;;;;4.97;2.90;;;;;;;19.88;50.81;101480.63;5030572;27;99991;-71
2023/09/16 04:02:14;;;;;;;6.57;2.85;;;;;;;19.93;50.72;101490.19;5032783;27;96713;-71
2023/09/16 04:04:40;;;;;;;8.15;2.70;;;;;;;19.90;50.93;101496.59;5032821;27;97116;-72
2023/09/16 04:07:07;;;;;;;5.70;2.67;;;;;;;19.84;51.07;101494.28;5027736;27;100116;-72
2023/09/16 04:09:33;;;;;;;5.53;2.75;;;;;;;19.79;50.97;101483.00;5030590;27;99257;-71
2023/09/16 04:11:59;;;;;;;5.25;2.50;;;;;;;19.58;51.38;101495.91;5031483;27;96925;-72
2023/09/16 04:14:27;;;;;;;5.90;2.47;;;;;;;19.57;51.39;101488.81;5032634;27;97631;-71
2023/09/16 04:16:54;;;;;;;8.00;2.25;;;;;;;19.82;51.16;101489.03;5030618;27;99291;-71
2023/09/16 04:19:21;;;;;;;4.30;2.85;;;;;;;19.52;51.80;101488.25;5030130;27;98708;-72
2023/09/16 04:21:47;;;;;;;3.97;2.65;;;;;;;19.71;51.61;101488.84;5029810;27;96942;-72
2023/09/16 04:24:13;;;;;;;4.60;2.53;;;;;;;19.67;51.53;101494.50;5031730;27;97096;-72
2023/09/16 04:26:40;;;;;;;7.15;3.00;;;;;;;19.69;51.50;101487.22;5031589;27;99472;-72
2023/09/16 04:29:06;;;;;;;8.65;2.83;;;;;;;19.72;51.35;101487.00;5030093;27;99221;-71
2023/09/16 04:31:32;;;;;;;3.65;2.65;;;;;;;19.56;51.56;101481.72;5031046;27;96814;-72
2023/09/16 04:34:00;;;;;;;6.32;3.35;;;;;;;19.86;50.86;101478.97;5031217;27;96794;-71
2023/09/16 04:36:27;;;;;;;8.95;3.30;;;;;;;19.80;50.87;101487.41;5030741;27;97939;-72
2023/09/16 04:38:53;;;;;;;8.88;3.00;;;;;;;19.77;50.49;101490.28;5031195;27;99267;-72
2023/09/16 04:41:21;;;;;;;4.38;2.60;;;;;;;19.60;51.26;101493.13;5030671;27;96802;-71
2023/09/16 04:43:49;;;;;;;7.18;3.45;;;;;;;19.61;51.20;101490.38;5031762;27;96960;-70
2023/09/16 04:46:16;;;;;;;9.88;3.40;;;;;;;19.56;51.27;101488.94;5030514;27;97918;-71
2023/09/16 04:48:43;;;;;;;5.43;2.67;;;;;;;19.39;51.73;101492.59;5030031;27;98762;-70
2023/09/16 04:51:10;;;;;;;4.97;2.75;;;;;;;19.46;51.76;101493.97;5029446;27;96824;-71
2023/09/16 04:53:37;;;;;;;9.82;3.13;;;;;;;19.63;51.30;101485.75;5031347;27;97185;-71
2023/09/16 04:56:05;;;;;;;5.53;2.60;;;;;;;19.61;51.24;101492.19;5030973;27;97753;-71
2023/09/16 04:58:31;;;;;;;5.82;2.90;;;;;;;19.24;52.52;101498.84;5031622;27;100477;-71
2023/09/16 05:00:59;;;;;;;8.35;3.30;;;;;;;19.45;51.79;101506.47;5026086;27;96853;-71
2023/09/16 05:03:26;;;;;;;6.55;2.97;;;;;;;19.35;52.35;101504.47;5032426;27;96828;-72
2023/09/16 05:05:52;;;;;;;6.15;2.53;;;;;;;19.17;52.28;101501.03;5031186;27;99261;-72
2023/09/16 05:08:20;;;;;;;9.50;2.75;;;;;;;19.27;52.50;101501.38;5029881;27;98976;-71
2023/09/16 05:10:52;;;;;;;7.63;2.92;;;;;;;19.33;52.09;101501.88;5027274;27;96834;-71
2023/09/16 05:13:19;;;;;;;9.38;3.42;;;;;;;19.40;52.05;101505.03;5030845;27;96825;-71
2023/09/16 05:15:47;;;;;;;5.20;2.72;;;;;;;19.52;51.54;101507.00;5030553;27;102164;-71
2023/09/16 05:18:13;;;;;;;5.15;2.95;;;;;;;19.39;51.81;101501.50;5031840;27;98761;-72
2023/09/16 05:20:39;;;;;;;5.70;3.00;;;;;;;19.69;51.06;101504.16;5028958;27;96862;-71
2023/09/16 05:23:11;;;;;;;6.43;2.95;;;;;;;19.59;50.96;101508.34;5032734;27;96971;-73
2023/09/16 05:25:48;;;;;;;6.00;2.70;;;;;;;19.50;51.44;101509.78;5029272;27;98449;-74
2023/09/16 05:28:22;;;;;;;7.40;2.95;;;;;;;19.81;50.90;101507.91;5031863;27;98131;-73
2023/09/16 05:30:51;;;;;;;5.82;3.00;;;;;;;19.46;51.40;101508.25;5021927;27;98402;-74
2023/09/16 05:33:26;;;;;;;7.15;3.17;;;;;;;19.69;51.01;101506.00;5031273;27;96838;-73
2023/09/16 05:35:55;;;;;;;4.78;3.15;;;;;;;19.94;50.55;101491.91;5031732;27;100099;-77
2023/09/16 05:38:22;;;;;;;7.43;3.47;;;;;;;19.70;51.31;101502.31;5031972;27;98044;-76
2023/09/16 05:40:54;;;;;;;9.48;3.50;;;;;;;19.91;50.76;101509.06;5029554;27;97669;-76
2023/09/16 05:43:35;;;;;;;10.88;3.60;;;;;;;19.76;50.77;101510.84;5031033;27;97286;-75
2023/09/16 05:46:06;;;;;;;8.02;3.03;;;;;;;19.78;50.82;101508.09;5028964;27;98487;-76
2023/09/16 05:48:37;;;;;;;5.15;3.13;;;;;;;19.74;51.20;101511.94;5031369;27;98052;-77
2023/09/16 05:51:08;;;;;;;10.95;3.30;;;;;;;19.94;50.62;101508.00;5024060;27;96781;-77
2023/09/16 05:53:41;;;;;;;5.72;2.97;;;;;;;20.09;50.20;101510.56;5030580;27;96891;-77
2023/09/16 05:56:19;;;;;;;7.40;3.05;;;;;;;20.03;50.29;101519.00;5027529;27;100450;-76
2023/09/16 05:58:47;;;;;;;4.60;2.78;;;;;;;20.30;49.98;101513.72;5028323;27;100280;-76
2023/09/16 06:01:25;;;;;;;7.10;3.35;;;;;;;20.27;49.78;101514.78;5030536;27;96908;-77
2023/09/16 06:03:52;;;;;;;7.22;3.50;;;;;;;20.33;49.73;101516.25;5028640;27;96907;-74
2023/09/16 06:06:19;;;;;;;8.68;3.40;;;;;;;20.25;49.93;101519.38;5028249;27;98882;-74
2023/09/16 06:08:45;;;;;;;7.95;3.65;;;;;;;20.09;49.93;101518.63;5028913;27;99417;-74
2023/09/16 06:11:13;;;;;;;7.22;3.08;;;;;;;20.12;50.26;101523.81;5030003;27;99544;-74
2023/09/16 06:13:40;;;;;;;7.75;2.95;;;;;;;20.12;50.27;101531.84;5037227;27;96876;-75
2023/09/16 06:16:07;;;;;;;7.28;3.22;;;;;;;20.10;50.20;101535.59;5041265;27;99312;-74
2023/09/16 06:18:34;;;;;;;8.60;3.47;;;;;;;20.30;49.90;101536.06;5038251;27;98741;-74
2023/09/16 06:21:01;;;;;;;5.38;3.53;;;;;;;20.55;49.37;101537.19;5044077;27;97002;-74
2023/09/16 06:23:27;;;;;;;5.20;3.47;;;;;;;20.81;48.75;101527.44;5032669;27;96942;-75
2023/09/16 06:25:53;;;;;;;5.85;3.22;;;;;;;20.64;49.31;101528.56;5034226;27;97989;-75
2023/09/16 06:28:20;;;;;;;8.32;3.53;;;;;;;20.89;48.50;101527.78;5030731;27;99014;-73
2023/09/16 06:30:48;;;;;;;4.88;3.13;;;;;;;20.90;48.18;101522.34;5037857;27;96726;-74
2023/09/16 06:33:14;;;;;;;6.18;3.15;;;;;;;20.90;48.80;101533.06;5035614;27;97525;-74
2023/09/16 06:35:41;;;;;;;8.95;3.20;;;;;;;21.17;48.00;101534.91;5038935;27;98888;-73
2023/09/16 06:38:07;;;;;;;7.47;3.40;;;;;;;21.04;48.14;101538.41;5036688;27;98886;-74
2023/09/16 06:40:33;;;;;;;7.88;3.60;;;;;;;20.88;48.46;101540.38;5039566;27;96716;-74
2023/09/16 06:43:00;;;;;;;8.05;3.65;;;;;;;21.03;48.60;101544.72;5043055;27;97658;-74
2023/09/16 06:45:26;;;;;;;8.00;3.70;;;;;;;21.06;47.84;101533.78;5041419;27;99006;-74
2023/09/16 06:47:56;;;;;;;10.90;3.92;;;;;;;21.08;48.11;101534.53;5048143;27;99076;-75
2023/09/16 06:50:22;;;;;;;7.15;3.80;;;;;;;21.08;48.09;101525.59;5032678;27;96851;-74
2023/09/16 06:52:49;;;;;;;6.03;3.53;;;;;;;21.24;47.67;101525.47;5040033;27;97815;-75
2023/09/16 06:55:16;;;;;;;11.25;3.80;;;;;;;21.23;47.94;101530.00;5042385;27;99618;-75
2023/09/16 06:57:42;;;;;;;5.97;3.70;;;;;;;21.43;47.36;101534.00;5046347;27;102507;-74
2023/09/16 07:00:10;;;;;;;11.95;5.05;;;;;;;21.49;47.23;101528.22;5038453;27;96900;-75
2023/09/16 07:02:36;;;;;;;9.38;3.47;;;;;;;21.82;46.76;101528.56;5034183;28;99518;-75
2023/09/16 07:05:04;;;;;;;7.88;3.72;;;;;;;21.86;46.33;101524.69;5041279;27;97431;-74
2023/09/16 07:07:31;;;;;;;13.60;3.95;;;;;;;22.12;45.73;101519.34;5040639;27;98763;-74
2023/09/16 07:09:57;;;;;;;7.68;3.65;;;;;;;21.95;46.34;101516.94;5037952;27;97703;-75
2023/09/16 07:12:24;;;;;;;9.13;3.78;;;;;;;22.22;45.79;101525.78;5036457;27;97631;-74
2023/09/16 07:14:51;;;;;;;7.45;3.47;;;;;;;22.27;45.69;101524.47;5030228;27;101742;-75
2023/09/16 07:17:17;;;;;;;6.57;3.50;;;;;;;22.38;45.37;101520.16;5030983;27;98814;-74
2023/09/16 07:19:44;;;;;;;6.45;3.83;;;;;;;22.41;45.82;101518.06;5033508;27;96720;-74
2023/09/16 07:22:12;;;;;;;5.78;3.60;;;;;;;22.35;45.80;101526.59;5028322;27;96962;-74
2023/09/16 07:24:38;;;;;;;5.95;3.25;;;;;;;22.63;45.35;101520.06;5030625;27;99504;-75
2023/09/16 07:27:05;;;;;;;11.65;4.25;;;;;;;22.69;45.11;101516.06;5031852;27;98802;-75
2023/09/16 07:29:31;;;;;;;7.05;3.70;;;;;;;22.66;45.02;101514.44;5032703;27;98692;-75
2023/09/16 07:31:58;;;;;;;6.40;3.40;;;;;;;22.78;44.89;101515.38;5030823;27;96779;-74
2023/09/16 07:34:25;;;;;;;10.25;4.00;;;;;;;22.86;45.15;101515.69;5029603;27;99352;-72
2023/09/16 07:36:52;;;;;;;7.95;3.65;;;;;;;22.56;45.35;101514.28;5031888;27;100742;-72
2023/09/16 07:39:22;;;;;;;6.47;3.35;;;;;;;22.58;45.72;101501.53;5032116;27;97125;-73
2023/09/16 07:41:49;;;;;;;7.75;3.40;;;;;;;23.24;44.76;101500.16;5030696;27;97054;-71
2023/09/16 07:44:15;;;;;;;9.32;3.38;;;;;;;23.48;44.19;101500.16;5022367;27;97813;-70
2023/09/16 07:46:42;;;;;;;8.20;4.05;;;;;;;23.93;43.35;101501.06;5031729;27;99457;-72
2023/09/16 07:49:08;;;;;;;7.82;3.33;;;;;;;24.30;42.20;101493.59;5032093;27;96800;-71
2023/09/16 07:51:34;;;;;;;6.25;3.55;;;;;;;24.37;41.75;101494.81;5030904;27;97034;-71
2023/09/16 07:54:02;;;;;;;7.93;3.63;;;;;;;24.50;41.63;101498.25;5030368;27;98944;-71
2023/09/16 07:56:30;;;;;;;12.35;3.75;;;;;;;24.45;41.92;101496.91;5031431;27;98784;-73
2023/09/16 07:58:57;;;;;;;6.70;3.75;;;;;;;24.74;41.64;101500.78;5030454;27;96945;-72
2023/09/16 08:01:23;;;;;;;11.13;3.58;;;;;;;24.45;42.11;101495.06;5026459;28;98442;-71
2023/09/16 08:03:50;;;;;;;14.75;4.00;;;;;;;24.57;42.00;101501.28;5027655;27;99456;-71
2023/09/16 08:06:16;;;;;;;6.47;3.25;;;;;;;24.48;41.45;101496.66;5031534;27;98782;-71
2023/09/16 08:08:43;;;;;;;7.15;3.13;;;;;;;24.24;42.66;101496.81;5033038;28;96992;-71
2023/09/16 08:11:09;;;;;;;6.13;3.50;;;;;;;24.61;41.66;101489.25;5028774;27;97358;-71
2023/09/16 08:13:37;;;;;;;6.57;3.10;;;;;;;24.93;41.26;101494.72;5028412;27;98444;-72
2023/09/16 08:16:03;;;;;;;9.48;3.63;;;;;;;24.84;41.66;101498.16;5029191;27;98076;-72
2023/09/16 08:18:30;;;;;;;5.50;3.72;;;;;;;25.27;40.70;101500.84;5033008;28;96772;-72
2023/09/16 08:20:56;;;;;;;6.95;3.40;;;;;;;25.49;40.36;101498.00;5028846;27;98343;-72
2023/09/16 08:23:22;;;;;;;9.77;3.65;;;;;;;25.34;40.52;101499.31;5027970;27;100075;-72
2023/09/16 08:25:49;;;;;;;10.82;3.88;;;;;;;25.59;39.55;101493.56;5036053;27;99511;-71
2023/09/16 08:28:18;;;;;;;5.25;3.60;;;;;;;25.44;39.79;101500.25;5032452;27;96765;-72
2023/09/16 08:30:45;;;;;;;7.18;3.55;;;;;;;25.25;40.65;101489.28;5036407;27;97407;-72
2023/09/16 08:33:12;;;;;;;6.68;3.38;;;;;;;25.21;40.73;101495.94;5031983;27;98729;-72
2023/09/16 08:35:39;;;;;;;5.60;3.10;;;;;;;25.09;40.88;101488.84;5031583;27;97819;-73
2023/09/16 08:38:07;;;;;;;7.57;3.95;;;;;;;25.74;40.13;101488.63;5032443;27;97047;-71
2023/09/16 08:40:34;;;;;;;5.10;3.60;;;;;;;25.85;39.52;101483.16;5031195;27;96960;-71
2023/09/16 08:43:11;;;;;;;7.68;3.45;;;;;;;25.88;39.49;101482.84;5025884;27;99098;-72
2023/09/16 08:45:42;;;;;;;8.23;3.50;;;;;;;25.61;40.12;101493.38;5032048;27;100475;-71
2023/09/16 08:48:14;;;;;;;9.80;3.30;;;;;;;25.94;39.69;101481.47;5040402;27;96846;-71
2023/09/16 08:50:42;;;;;;;6.80;3.00;;;;;;;25.84;39.89;101480.56;5033346;27;96859;-72
2023/09/16 08:53:11;;;;;;;6.40;3.03;;;;;;;25.45;40.70;101485.72;5025993;27;99901;-71
2023/09/16 08:55:37;;;;;;;8.32;3.63;;;;;;;25.18;41.78;101493.50;5032164;27;98838;-72
2023/09/16 08:58:06;;;;;;;6.82;3.70;;;;;;;25.48;40.52;101495.41;5027596;27;96822;-71
2023/09/16 09:00:32;;;;;;;4.88;3.25;;;;;;;25.26;40.88;101482.91;5025092;27;96833;-71
2023/09/16 09:02:59;;;;;;;6.35;3.38;;;;;;;25.16;41.43;101482.81;5024251;27;99993;-71
2023/09/16 09:05:28;;;;;;;7.45;3.80;;;;;;;24.71;43.08;101484.81;5025941;27;98899;-73
2023/09/16 09:07:54;;;;;;;6.38;3.35;;;;;;;25.04;42.14;101480.28;5022915;27;96943;-72
2023/09/16 09:10:22;;;;;;;9.77;3.30;;;;;;;24.92;42.61;101482.19;5031149;28;96794;-71
2023/09/16 09:12:48;;;;;;;8.65;3.65;;;;;;;25.48;41.90;101471.91;5027266;28;100624;-75
2023/09/16 09:15:16;;;;;;;5.97;4.05;;;;;;;25.70;41.58;101473.66;5031548;27;97553;-75
2023/09/16 09:17:45;;;;;;;7.13;3.58;;;;;;;26.12;40.49;101464.44;5031918;28;97007;-75
2023/09/16 09:20:16;;;;;;;9.23;3.63;;;;;;;26.35;39.92;101458.84;5030372;28;99633;-75
2023/09/16 09:22:44;;;;;;;6.35;3.20;;;;;;;26.49;39.27;101469.28;5031400;28;98986;-75
2023/09/16 09:25:11;;;;;;;12.15;4.00;;;;;;;26.68;38.50;101460.31;5031181;28;98246;-74
2023/09/16 09:27:37;;;;;;;5.32;3.35;;;;;;;26.83;38.49;101464.34;5031866;28;96691;-75
2023/09/16 09:30:05;;;;;;;7.55;3.40;;;;;;;26.81;38.45;101459.03;5031850;28;96817;-74
2023/09/16 09:32:32;;;;;;;5.80;3.00;;;;;;;26.62;38.81;101452.75;5031318;28;99514;-75
2023/09/16 09:34:59;;;;;;;7.32;3.40;;;;;;;27.23;37.51;101451.50;5031426;27;97437;-75
2023/09/16 09:37:25;;;;;;;5.03;2.83;;;;;;;27.00;37.91;101450.09;5030675;28;96737;-75
2023/09/16 09:40:06;;;;;;;6.28;3.33;;;;;;;26.73;38.14;101447.19;5032525;27;98138;-75
2023/09/16 09:42:33;;;;;;;10.93;3.38;;;;;;;26.41;39.17;101451.00;5024529;27;99335;-75
2023/09/16 09:45:02;;;;;;;11.00;3.67;;;;;;;26.16;39.43;101446.06;5030452;28;100979;-74
2023/09/16 09:47:28;;;;;;;8.93;3.08;;;;;;;26.26;39.51;101446.97;5030892;27;96737;-74
2023/09/16 09:49:55;;;;;;;5.07;3.47;;;;;;;26.13;40.33;101439.06;5029880;27;99282;-74
2023/09/16 09:52:24;;;;;;;4.60;3.40;;;;;;;26.28;39.74;101441.41;5030330;27;97676;-74
2023/09/16 09:54:52;;;;;;;5.95;2.97;;;;;;;26.23;39.32;101428.25;5030397;27;98697;-74
2023/09/16 09:57:20;;;;;;;17.38;4.68;;;;;;;26.14;39.93;101431.78;5023426;28;97008;-74
2023/09/16 09:59:47;;;;;;;5.43;3.13;;;;;;;26.30;40.30;101429.47;5030631;27;97341;-74
2023/09/16 10:02:13;;;;;;;7.28;2.78;;;;;;;26.17;40.79;101435.09;5027507;27;98900;-74
2023/09/16 10:04:40;;;;;;;5.03;2.72;;;;;;;26.04;40.24;101429.06;5028942;27;99397;-74
2023/09/16 10:07:06;;;;;;;4.70;3.05;;;;;;;26.48;39.89;101430.47;5027111;27;97639;-75
2023/09/16 10:09:33;;;;;;;8.00;3.17;;;;;;;26.24;40.61;101424.59;5027813;27;96826;-74
2023/09/16 10:11:59;;;;;;;4.78;3.55;;;;;;;26.31;39.86;101414.91;5028918;27;98223;-74
2023/09/16 10:14:28;;;;;;;8.90;3.33;;;;;;;25.88;40.09;101412.47;5027684;27;98781;-74
2023/09/16 10:16:54;;;;;;;5.30;2.63;;;;;;;25.92;40.09;101422.06;5024321;27;97804;-74
2023/09/16 10:19:22;;;;;;;6.07;3.08;;;;;;;26.30;40.32;101415.06;5029065;27;98730;-75
2023/09/16 10:21:49;;;;;;;4.03;2.65;;;;;;;26.64;39.17;101416.38;5030105;28;101792;-75
2023/09/16 10:24:17;;;;;;;5.20;2.72;;;;;;;26.77;39.98;101413.38;5031520;27;98828;-74
2023/09/16 10:26:43;;;;;;;6.32;2.63;;;;;;;26.71;39.28;101408.53;5027996;27;96881;-74
2023/09/16 10:29:12;;;;;;;5.50;2.92;;;;;;;26.89;38.70;101399.56;5029126;27;97926;-74
2023/09/16 10:31:42;;;;;;;10.40;3.42;;;;;;;27.06;38.68;101399.81;5026305;27;101302;-74
2023/09/16 10:34:09;;;;;;;7.57;3.17;;;;;;;27.16;38.94;101396.13;5030391;27;99340;-74
2023/09/16 10:36:36;;;;;;;9.63;3.28;;;;;;;27.46;38.65;101391.44;5032886;27;96940;-74
2023/09/16 10:39:03;;;;;;;4.40;2.80;;;;;;;27.55;37.87;101390.59;5033106;27;96919;-75
2023/09/16 10:41:30;;;;;;;3.90;2.85;;;;;;;27.62;37.97;101391.72;5031039;27;99053;-74
2023/09/16 10:43:58;;;;;;;5.72;3.20;;;;;;;27.60;38.14;101383.72;5032391;27;99067;-75
2023/09/16 10:46:25;;;;;;;4.85;2.75;;;;;;;27.58;38.14;101384.88;5029134;27;98031;-75
2023/09/16 10:48:53;;;;;;;3.88;2.90;;;;;;;27.84;37.44;101385.88;5026419;27;96868;-75
2023/09/16 10:51:23;;;;;;;3.55;2.95;;;;;;;27.83;37.84;101378.75;5030057;27;102111;-75
2023/09/16 10:53:55;;;;;;;5.50;3.00;;;;;;;27.95;37.59;101379.41;5030617;27;99210;-74
2023/09/16 10:56:28;;;;;;;5.03;3.28;;;;;;;27.95;37.70;101376.69;5032124;27;96756;-74
2023/09/16 10:59:01;;;;;;;3.45;3.15;;;;;;;27.83;37.90;101376.03;5032259;27;96845;-75
2023/09/16 11:01:36;;;;;;;6.10;3.70;;;;;;;27.72;37.65;101365.38;5027212;27;101795;-74
2023/09/16 11:04:09;;;;;;;6.50;3.10;;;;;;;27.87;38.01;101372.03;5026754;27;98899;-74
2023/09/16 11:06:36;;;;;;;3.13;2.75;;;;;;;27.92;38.64;101374.28;5031954;27;97024;-74
2023/09/16 11:09:03;;;;;;;4.63;3.08;;;;;;;27.83;38.26;101365.16;5031102;28;96762;-74
2023/09/16 11:11:30;;;;;;;3.65;2.78;;;;;;;27.93;37.91;101362.41;5032374;27;97821;-74
2023/09/16 11:13:58;;;;;;;7.80;3.17;;;;;;;27.87;38.18;101366.59;5033953;27;98243;-75
2023/09/16 11:16:24;;;;;;;8.07;4.70;;;;;;;28.03;37.84;101360.47;5031729;27;99691;-75
2023/09/16 11:18:52;;;;;;;6.25;3.47;;;;;;;28.09;37.39;101362.63;5033855;28;96821;-75
2023/09/16 11:21:21;;;;;;;6.95;3.28;;;;;;;28.06;37.88;101358.31;5029557;27;101647;-74
2023/09/16 11:23:49;;;;;;;5.90;3.20;;;;;;;28.05;38.13;101353.03;5032926;27;98979;-74
2023/09/16 11:26:18;;;;;;;5.78;2.95;;;;;;;28.01;37.64;101349.78;5032577;27;97959;-74